sensor_id;sensor_type;location;lat;lon;timestamp;temperature;humidity
12726;DHT22;6427;49.754;6.106;2023-03-03T00:00:18;1.50;99.90
12726;DHT22;6427;49.754;6.106;2023-03-03T00:02:46;1.50;99.90
12726;DHT22;6427;49.754;6.106;2023-03-03T00:05:14;1.50;99.90
12726;DHT22;6427;49.754;6.106;2023-03-03T00:07:42;1.50;99.90
12726;DHT22;6427;49.754;6.106;2023-03-03T00:10:09;1.50;99.90
12726;DHT22;6427;49.754;6.106;2023-03-03T00:12:42;1.50;99.90
12726;DHT22;6427;49.754;6.106;2023-03-03T00:15:15;1.50;99.90
12726;DHT22;6427;49.754;6.106;2023-03-03T00:17:41;1.40;99.90
12726;DHT22;6427;49.754;6.106;2023-03-03T00:22:51;1.30;99.90
12726;DHT22;6427;49.754;6.106;2023-03-03T00:28:00;1.60;99.90
12726;DHT22;6427;49.754;6.106;2023-03-03T00:30:28;1.50;99.90
12726;DHT22;6427;49.754;6.106;2023-03-03T00:32:55;1.50;99.90
12726;DHT22;6427;49.754;6.106;2023-03-03T00:37:58;1.30;99.90
12726;DHT22;6427;49.754;6.106;2023-03-03T00:40:32;1.30;99.90
12726;DHT22;6427;49.754;6.106;2023-03-03T00:42:58;1.20;99.90
12726;DHT22;6427;49.754;6.106;2023-03-03T00:45:33;1.20;99.90
12726;DHT22;6427;49.754;6.106;2023-03-03T00:47:59;1.10;99.90
12726;DHT22;6427;49.754;6.106;2023-03-03T00:50:31;1.00;99.90
12726;DHT22;6427;49.754;6.106;2023-03-03T00:53:00;0.90;99.90
12726;DHT22;6427;49.754;6.106;2023-03-03T00:55:28;1.10;99.90
12726;DHT22;6427;49.754;6.106;2023-03-03T00:57:55;1.10;99.90
12726;DHT22;6427;49.754;6.106;2023-03-03T01:00:23;1.10;99.90
12726;DHT22;6427;49.754;6.106;2023-03-03T01:02:50;1.00;99.90
12726;DHT22;6427;49.754;6.106;2023-03-03T01:05:19;1.10;99.90
12726;DHT22;6427;49.754;6.106;2023-03-03T01:07:46;1.10;99.90
12726;DHT22;6427;49.754;6.106;2023-03-03T01:10:14;1.10;99.90
12726;DHT22;6427;49.754;6.106;2023-03-03T01:12:42;1.00;99.90
12726;DHT22;6427;49.754;6.106;2023-03-03T01:15:10;0.90;99.90
12726;DHT22;6427;49.754;6.106;2023-03-03T01:17:37;0.80;99.90
12726;DHT22;6427;49.754;6.106;2023-03-03T01:20:06;0.80;99.90
12726;DHT22;6427;49.754;6.106;2023-03-03T01:22:33;0.70;99.90
12726;DHT22;6427;49.754;6.106;2023-03-03T01:25:00;0.70;99.90
12726;DHT22;6427;49.754;6.106;2023-03-03T01:27:28;0.90;99.90
12726;DHT22;6427;49.754;6.106;2023-03-03T01:29:55;0.90;99.90
12726;DHT22;6427;49.754;6.106;2023-03-03T01:32:23;0.80;99.90
12726;DHT22;6427;49.754;6.106;2023-03-03T01:34:51;0.70;99.90
12726;DHT22;6427;49.754;6.106;2023-03-03T01:37:19;0.60;99.90
12726;DHT22;6427;49.754;6.106;2023-03-03T01:39:53;0.50;99.90
12726;DHT22;6427;49.754;6.106;2023-03-03T01:42:21;0.70;99.90
12726;DHT22;6427;49.754;6.106;2023-03-03T01:44:48;0.70;99.90
12726;DHT22;6427;49.754;6.106;2023-03-03T01:47:32;0.60;99.90
12726;DHT22;6427;49.754;6.106;2023-03-03T01:49:57;0.50;99.90
12726;DHT22;6427;49.754;6.106;2023-03-03T01:52:30;0.40;99.90
12726;DHT22;6427;49.754;6.106;2023-03-03T01:54:54;0.30;99.90
12726;DHT22;6427;49.754;6.106;2023-03-03T01:57:23;0.60;99.90
12726;DHT22;6427;49.754;6.106;2023-03-03T01:59:48;0.50;99.90
12726;DHT22;6427;49.754;6.106;2023-03-03T02:02:16;0.40;99.90
12726;DHT22;6427;49.754;6.106;2023-03-03T02:04:44;0.60;99.90
12726;DHT22;6427;49.754;6.106;2023-03-03T02:07:13;0.50;99.90
12726;DHT22;6427;49.754;6.106;2023-03-03T02:10:02;0.50;99.90
12726;DHT22;6427;49.754;6.106;2023-03-03T02:12:49;0.50;99.90
12726;DHT22;6427;49.754;6.106;2023-03-03T02:14:53;0.40;99.90
12726;DHT22;6427;49.754;6.106;2023-03-03T02:17:21;0.60;99.90
12726;DHT22;6427;49.754;6.106;2023-03-03T02:22:46;0.50;99.90
12726;DHT22;6427;49.754;6.106;2023-03-03T02:25:12;0.40;99.90
12726;DHT22;6427;49.754;6.106;2023-03-03T02:27:38;0.30;99.90
12726;DHT22;6427;49.754;6.106;2023-03-03T02:30:14;0.20;99.90
12726;DHT22;6427;49.754;6.106;2023-03-03T02:32:41;0.20;99.90
12726;DHT22;6427;49.754;6.106;2023-03-03T02:35:29;0.10;99.90
12726;DHT22;6427;49.754;6.106;2023-03-03T02:37:55;0.20;99.90
12726;DHT22;6427;49.754;6.106;2023-03-03T02:40:22;0.10;99.90
12726;DHT22;6427;49.754;6.106;2023-03-03T02:42:49;0.10;99.90
12726;DHT22;6427;49.754;6.106;2023-03-03T02:45:17;0.10;99.90
12726;DHT22;6427;49.754;6.106;2023-03-03T02:47:50;0.10;99.90
12726;DHT22;6427;49.754;6.106;2023-03-03T02:50:18;0.00;99.90
12726;DHT22;6427;49.754;6.106;2023-03-03T02:52:45;0.00;99.90
12726;DHT22;6427;49.754;6.106;2023-03-03T02:55:13;-0.10;99.90
12726;DHT22;6427;49.754;6.106;2023-03-03T02:57:41;-0.10;99.90
12726;DHT22;6427;49.754;6.106;2023-03-03T03:00:09;-0.20;99.90
12726;DHT22;6427;49.754;6.106;2023-03-03T03:02:36;0.00;99.90
12726;DHT22;6427;49.754;6.106;2023-03-03T03:05:04;0.00;99.90
12726;DHT22;6427;49.754;6.106;2023-03-03T03:07:31;0.00;99.90
12726;DHT22;6427;49.754;6.106;2023-03-03T03:09:59;-0.10;99.90
12726;DHT22;6427;49.754;6.106;2023-03-03T03:12:27;-0.20;99.90
12726;DHT22;6427;49.754;6.106;2023-03-03T03:14:54;0.10;99.90
12726;DHT22;6427;49.754;6.106;2023-03-03T03:17:22;0.10;99.90
12726;DHT22;6427;49.754;6.106;2023-03-03T03:19:49;0.10;99.90
12726;DHT22;6427;49.754;6.106;2023-03-03T03:22:17;0.00;99.90
12726;DHT22;6427;49.754;6.106;2023-03-03T03:24:44;-0.10;99.90
12726;DHT22;6427;49.754;6.106;2023-03-03T03:27:13;-0.20;99.90
12726;DHT22;6427;49.754;6.106;2023-03-03T03:29:40;-0.20;99.90
12726;DHT22;6427;49.754;6.106;2023-03-03T03:32:08;-0.20;99.90
12726;DHT22;6427;49.754;6.106;2023-03-03T03:34:35;-0.30;99.90
12726;DHT22;6427;49.754;6.106;2023-03-03T03:37:05;-0.30;99.90
12726;DHT22;6427;49.754;6.106;2023-03-03T03:39:32;-0.40;99.90
12726;DHT22;6427;49.754;6.106;2023-03-03T03:42:00;-0.40;99.90
12726;DHT22;6427;49.754;6.106;2023-03-03T03:44:28;-0.50;99.90
12726;DHT22;6427;49.754;6.106;2023-03-03T03:46:55;-0.50;99.90
12726;DHT22;6427;49.754;6.106;2023-03-03T03:49:24;-0.50;99.90
12726;DHT22;6427;49.754;6.106;2023-03-03T03:51:51;-0.60;99.90
12726;DHT22;6427;49.754;6.106;2023-03-03T03:54:19;-0.60;99.90
12726;DHT22;6427;49.754;6.106;2023-03-03T03:56:46;-0.60;99.90
12726;DHT22;6427;49.754;6.106;2023-03-03T03:59:15;-0.40;99.90
12726;DHT22;6427;49.754;6.106;2023-03-03T04:01:43;-0.50;99.90
12726;DHT22;6427;49.754;6.106;2023-03-03T04:04:11;-0.50;99.90
12726;DHT22;6427;49.754;6.106;2023-03-03T04:06:38;-0.50;99.90
12726;DHT22;6427;49.754;6.106;2023-03-03T04:09:06;-0.60;99.90
12726;DHT22;6427;49.754;6.106;2023-03-03T04:11:35;-0.70;99.90
12726;DHT22;6427;49.754;6.106;2023-03-03T04:14:03;-0.50;99.90
12726;DHT22;6427;49.754;6.106;2023-03-03T04:16:31;-0.50;99.90
12726;DHT22;6427;49.754;6.106;2023-03-03T04:18:59;-0.60;99.90
12726;DHT22;6427;49.754;6.106;2023-03-03T04:21:27;-0.70;99.90
12726;DHT22;6427;49.754;6.106;2023-03-03T04:23:54;-0.70;99.90
12726;DHT22;6427;49.754;6.106;2023-03-03T04:26:22;-0.50;99.90
12726;DHT22;6427;49.754;6.106;2023-03-03T04:28:49;-0.60;99.90
12726;DHT22;6427;49.754;6.106;2023-03-03T04:31:17;-0.70;99.90
12726;DHT22;6427;49.754;6.106;2023-03-03T04:33:44;-0.50;99.90
12726;DHT22;6427;49.754;6.106;2023-03-03T04:36:12;-0.60;99.90
12726;DHT22;6427;49.754;6.106;2023-03-03T04:38:40;-0.80;99.90
12726;DHT22;6427;49.754;6.106;2023-03-03T04:41:07;-0.90;99.90
12726;DHT22;6427;49.754;6.106;2023-03-03T04:43:35;-0.90;99.90
12726;DHT22;6427;49.754;6.106;2023-03-03T04:46:02;-0.90;99.90
12726;DHT22;6427;49.754;6.106;2023-03-03T04:48:30;-1.00;99.90
12726;DHT22;6427;49.754;6.106;2023-03-03T04:50:57;-1.00;99.90
12726;DHT22;6427;49.754;6.106;2023-03-03T04:53:25;-1.00;99.90
12726;DHT22;6427;49.754;6.106;2023-03-03T04:55:53;-1.00;99.90
12726;DHT22;6427;49.754;6.106;2023-03-03T04:58:20;-1.00;99.90
12726;DHT22;6427;49.754;6.106;2023-03-03T05:00:54;-1.00;99.90
12726;DHT22;6427;49.754;6.106;2023-03-03T05:03:22;-1.00;99.90
12726;DHT22;6427;49.754;6.106;2023-03-03T05:05:50;-1.00;99.90
12726;DHT22;6427;49.754;6.106;2023-03-03T05:08:18;-1.10;99.90
12726;DHT22;6427;49.754;6.106;2023-03-03T05:10:49;-1.10;99.90
12726;DHT22;6427;49.754;6.106;2023-03-03T05:13:14;-1.10;99.90
12726;DHT22;6427;49.754;6.106;2023-03-03T05:15:41;-1.10;99.90
12726;DHT22;6427;49.754;6.106;2023-03-03T05:18:09;-0.80;99.90
12726;DHT22;6427;49.754;6.106;2023-03-03T05:20:38;-0.90;99.90
12726;DHT22;6427;49.754;6.106;2023-03-03T05:23:04;-0.90;99.90
12726;DHT22;6427;49.754;6.106;2023-03-03T05:25:32;-1.10;99.90
12726;DHT22;6427;49.754;6.106;2023-03-03T05:28:00;-1.10;99.90
12726;DHT22;6427;49.754;6.106;2023-03-03T05:30:28;-0.90;99.90
12726;DHT22;6427;49.754;6.106;2023-03-03T05:32:56;-0.90;99.90
12726;DHT22;6427;49.754;6.106;2023-03-03T05:35:24;-0.90;99.90
12726;DHT22;6427;49.754;6.106;2023-03-03T05:37:51;-1.00;99.90
12726;DHT22;6427;49.754;6.106;2023-03-03T05:40:18;-1.10;99.90
12726;DHT22;6427;49.754;6.106;2023-03-03T05:42:46;-1.20;99.90
12726;DHT22;6427;49.754;6.106;2023-03-03T05:45:14;-1.30;99.90
12726;DHT22;6427;49.754;6.106;2023-03-03T05:47:41;-1.40;99.90
12726;DHT22;6427;49.754;6.106;2023-03-03T05:50:09;-1.40;99.90
12726;DHT22;6427;49.754;6.106;2023-03-03T05:52:36;-1.50;99.90
12726;DHT22;6427;49.754;6.106;2023-03-03T05:57:42;-1.60;99.90
12726;DHT22;6427;49.754;6.106;2023-03-03T06:00:10;-1.60;99.90
12726;DHT22;6427;49.754;6.106;2023-03-03T06:02:38;-1.30;99.90
12726;DHT22;6427;49.754;6.106;2023-03-03T06:05:06;-1.30;99.90
12726;DHT22;6427;49.754;6.106;2023-03-03T06:07:34;-1.30;99.90
12726;DHT22;6427;49.754;6.106;2023-03-03T06:10:02;-1.40;99.90
12726;DHT22;6427;49.754;6.106;2023-03-03T06:12:29;-1.30;99.90
12726;DHT22;6427;49.754;6.106;2023-03-03T06:14:57;-1.40;99.90
12726;DHT22;6427;49.754;6.106;2023-03-03T06:17:24;-1.40;99.90
12726;DHT22;6427;49.754;6.106;2023-03-03T06:19:52;-1.40;99.90
12726;DHT22;6427;49.754;6.106;2023-03-03T06:22:19;-1.40;99.90
12726;DHT22;6427;49.754;6.106;2023-03-03T06:24:47;-1.20;99.90
12726;DHT22;6427;49.754;6.106;2023-03-03T06:27:14;-0.90;99.90
12726;DHT22;6427;49.754;6.106;2023-03-03T06:29:42;-0.60;99.90
12726;DHT22;6427;49.754;6.106;2023-03-03T06:32:10;-0.70;99.90
12726;DHT22;6427;49.754;6.106;2023-03-03T06:34:38;-1.00;99.90
12726;DHT22;6427;49.754;6.106;2023-03-03T06:37:05;-1.00;99.90
12726;DHT22;6427;49.754;6.106;2023-03-03T06:39:33;-1.10;99.90
12726;DHT22;6427;49.754;6.106;2023-03-03T06:42:01;-1.20;99.90
12726;DHT22;6427;49.754;6.106;2023-03-03T06:44:28;-1.30;99.90
12726;DHT22;6427;49.754;6.106;2023-03-03T06:46:56;-1.30;99.90
12726;DHT22;6427;49.754;6.106;2023-03-03T06:49:23;-1.30;99.90
12726;DHT22;6427;49.754;6.106;2023-03-03T06:51:51;-1.40;99.90
12726;DHT22;6427;49.754;6.106;2023-03-03T06:54:19;-1.10;99.90
12726;DHT22;6427;49.754;6.106;2023-03-03T06:56:46;-1.10;99.90
12726;DHT22;6427;49.754;6.106;2023-03-03T06:59:15;-1.10;99.90
12726;DHT22;6427;49.754;6.106;2023-03-03T07:01:42;-0.90;99.90
12726;DHT22;6427;49.754;6.106;2023-03-03T07:04:27;-0.90;99.90
12726;DHT22;6427;49.754;6.106;2023-03-03T07:06:57;-1.00;99.90
12726;DHT22;6427;49.754;6.106;2023-03-03T07:09:28;-0.80;99.90
12726;DHT22;6427;49.754;6.106;2023-03-03T07:12:00;-0.80;99.90
12726;DHT22;6427;49.754;6.106;2023-03-03T07:14:23;-0.80;99.90
12726;DHT22;6427;49.754;6.106;2023-03-03T07:16:55;-0.60;99.90
12726;DHT22;6427;49.754;6.106;2023-03-03T07:19:20;-0.60;99.90
12726;DHT22;6427;49.754;6.106;2023-03-03T07:21:46;-0.60;99.90
12726;DHT22;6427;49.754;6.106;2023-03-03T07:24:26;-0.60;99.90
12726;DHT22;6427;49.754;6.106;2023-03-03T07:26:59;-0.70;99.90
12726;DHT22;6427;49.754;6.106;2023-03-03T07:29:27;-0.60;99.90
12726;DHT22;6427;49.754;6.106;2023-03-03T07:31:55;-0.60;99.90
12726;DHT22;6427;49.754;6.106;2023-03-03T07:34:37;-0.60;99.90
12726;DHT22;6427;49.754;6.106;2023-03-03T07:37:16;-0.50;99.90
12726;DHT22;6427;49.754;6.106;2023-03-03T07:39:44;0.00;99.90
12726;DHT22;6427;49.754;6.106;2023-03-03T07:42:33;-0.10;99.90
12726;DHT22;6427;49.754;6.106;2023-03-03T07:44:55;0.00;99.90
12726;DHT22;6427;49.754;6.106;2023-03-03T07:47:30;0.10;99.90
12726;DHT22;6427;49.754;6.106;2023-03-03T07:49:55;0.20;99.90
12726;DHT22;6427;49.754;6.106;2023-03-03T07:52:38;0.30;99.90
12726;DHT22;6427;49.754;6.106;2023-03-03T07:57:52;0.40;99.90
12726;DHT22;6427;49.754;6.106;2023-03-03T08:03:08;0.50;99.90
12726;DHT22;6427;49.754;6.106;2023-03-03T08:05:47;0.50;99.90
12726;DHT22;6427;49.754;6.106;2023-03-03T08:08:26;0.90;99.90
12726;DHT22;6427;49.754;6.106;2023-03-03T08:10:49;1.00;99.90
12726;DHT22;6427;49.754;6.106;2023-03-03T08:13:23;1.10;99.90
12726;DHT22;6427;49.754;6.106;2023-03-03T08:15:48;1.30;99.90
12726;DHT22;6427;49.754;6.106;2023-03-03T08:18:33;2.10;99.90
12726;DHT22;6427;49.754;6.106;2023-03-03T08:20:58;2.00;99.90
12726;DHT22;6427;49.754;6.106;2023-03-03T08:23:25;2.10;99.90
12726;DHT22;6427;49.754;6.106;2023-03-03T08:25:52;2.10;99.90
12726;DHT22;6427;49.754;6.106;2023-03-03T08:28:20;2.20;99.90
12726;DHT22;6427;49.754;6.106;2023-03-03T08:30:48;2.50;99.90
12726;DHT22;6427;49.754;6.106;2023-03-03T08:33:15;2.60;99.90
12726;DHT22;6427;49.754;6.106;2023-03-03T08:35:43;2.70;99.90
12726;DHT22;6427;49.754;6.106;2023-03-03T08:38:11;2.70;99.90
12726;DHT22;6427;49.754;6.106;2023-03-03T08:40:38;2.80;99.90
12726;DHT22;6427;49.754;6.106;2023-03-03T08:43:06;3.20;99.90
12726;DHT22;6427;49.754;6.106;2023-03-03T08:45:34;3.10;99.90
12726;DHT22;6427;49.754;6.106;2023-03-03T08:48:03;3.30;99.90
12726;DHT22;6427;49.754;6.106;2023-03-03T08:50:31;3.30;99.90
12726;DHT22;6427;49.754;6.106;2023-03-03T08:52:58;3.30;99.90
12726;DHT22;6427;49.754;6.106;2023-03-03T08:55:27;3.50;99.90
12726;DHT22;6427;49.754;6.106;2023-03-03T08:57:54;3.50;99.90
12726;DHT22;6427;49.754;6.106;2023-03-03T09:00:22;3.60;99.90
12726;DHT22;6427;49.754;6.106;2023-03-03T09:02:49;3.70;99.90
12726;DHT22;6427;49.754;6.106;2023-03-03T09:05:18;3.70;99.90
12726;DHT22;6427;49.754;6.106;2023-03-03T09:07:44;3.80;99.90
12726;DHT22;6427;49.754;6.106;2023-03-03T09:10:15;4.00;99.90
12726;DHT22;6427;49.754;6.106;2023-03-03T09:12:41;4.00;99.90
12726;DHT22;6427;49.754;6.106;2023-03-03T09:15:28;4.00;99.90
12726;DHT22;6427;49.754;6.106;2023-03-03T09:18:14;4.10;99.90
12726;DHT22;6427;49.754;6.106;2023-03-03T09:25:50;4.20;99.90
12726;DHT22;6427;49.754;6.106;2023-03-03T09:28:25;4.40;99.90
12726;DHT22;6427;49.754;6.106;2023-03-03T09:30:52;4.40;99.90
12726;DHT22;6427;49.754;6.106;2023-03-03T09:36:00;4.60;99.90
12726;DHT22;6427;49.754;6.106;2023-03-03T09:38:28;4.70;99.90
12726;DHT22;6427;49.754;6.106;2023-03-03T09:41:05;4.80;99.90
12726;DHT22;6427;49.754;6.106;2023-03-03T09:48:48;4.90;99.90
12726;DHT22;6427;49.754;6.106;2023-03-03T09:54:25;5.60;99.90
12726;DHT22;6427;49.754;6.106;2023-03-03T09:56:59;5.50;99.90
12726;DHT22;6427;49.754;6.106;2023-03-03T09:59:28;5.50;99.90
12726;DHT22;6427;49.754;6.106;2023-03-03T10:01:59;5.80;99.90
12726;DHT22;6427;49.754;6.106;2023-03-03T10:10:02;5.70;99.90
12726;DHT22;6427;49.754;6.106;2023-03-03T10:12:30;5.70;99.90
12726;DHT22;6427;49.754;6.106;2023-03-03T10:17:44;5.80;99.90
12726;DHT22;6427;49.754;6.106;2023-03-03T10:20:16;5.90;99.90
12726;DHT22;6427;49.754;6.106;2023-03-03T10:22:56;6.00;99.90
12726;DHT22;6427;49.754;6.106;2023-03-03T10:25:41;6.00;99.90
12726;DHT22;6427;49.754;6.106;2023-03-03T10:34:40;6.20;99.90
12726;DHT22;6427;49.754;6.106;2023-03-03T10:42:42;6.80;99.90
12726;DHT22;6427;49.754;6.106;2023-03-03T10:45:38;6.80;99.90
12726;DHT22;6427;49.754;6.106;2023-03-03T11:02:05;6.90;99.60
12726;DHT22;6427;49.754;6.106;2023-03-03T11:07:32;7.00;99.00
12726;DHT22;6427;49.754;6.106;2023-03-03T11:10:19;7.10;99.00
12726;DHT22;6427;49.754;6.106;2023-03-03T11:13:04;7.20;98.80
12726;DHT22;6427;49.754;6.106;2023-03-03T11:15:42;7.20;98.80
12726;DHT22;6427;49.754;6.106;2023-03-03T11:18:24;7.30;98.50
12726;DHT22;6427;49.754;6.106;2023-03-03T11:21:22;7.50;98.10
12726;DHT22;6427;49.754;6.106;2023-03-03T11:34:59;8.00;96.60
12726;DHT22;6427;49.754;6.106;2023-03-03T11:37:38;7.90;96.50
12726;DHT22;6427;49.754;6.106;2023-03-03T11:40:48;8.00;96.40
12726;DHT22;6427;49.754;6.106;2023-03-03T11:45:33;8.10;95.80
12726;DHT22;6427;49.754;6.106;2023-03-03T11:48:04;8.10;95.80
12726;DHT22;6427;49.754;6.106;2023-03-03T11:50:34;8.10;95.80
12726;DHT22;6427;49.754;6.106;2023-03-03T11:53:23;8.20;95.80
12726;DHT22;6427;49.754;6.106;2023-03-03T11:55:38;8.30;95.40
12726;DHT22;6427;49.754;6.106;2023-03-03T12:00:59;8.40;94.70
12726;DHT22;6427;49.754;6.106;2023-03-03T12:03:32;8.50;94.20
12726;DHT22;6427;49.754;6.106;2023-03-03T12:06:20;8.50;94.20
12726;DHT22;6427;49.754;6.106;2023-03-03T12:11:42;8.60;94.20
12726;DHT22;6427;49.754;6.106;2023-03-03T12:17:19;8.90;93.60
12726;DHT22;6427;49.754;6.106;2023-03-03T12:19:48;9.00;93.20
12726;DHT22;6427;49.754;6.106;2023-03-03T12:27:24;9.30;92.00
12726;DHT22;6427;49.754;6.106;2023-03-03T12:30:08;9.40;91.70
12726;DHT22;6427;49.754;6.106;2023-03-03T12:35:25;9.40;91.10
12726;DHT22;6427;49.754;6.106;2023-03-03T12:37:58;9.40;90.80
12726;DHT22;6427;49.754;6.106;2023-03-03T12:40:25;9.40;90.50
12726;DHT22;6427;49.754;6.106;2023-03-03T12:43:02;9.50;90.00
12726;DHT22;6427;49.754;6.106;2023-03-03T12:48:17;9.80;87.90
12726;DHT22;6427;49.754;6.106;2023-03-03T12:50:59;9.80;87.90
12726;DHT22;6427;49.754;6.106;2023-03-03T12:53:54;9.80;87.90
12726;DHT22;6427;49.754;6.106;2023-03-03T12:57:15;10.10;87.30
12726;DHT22;6427;49.754;6.106;2023-03-03T12:59:08;10.10;86.20
12726;DHT22;6427;49.754;6.106;2023-03-03T13:01:44;10.30;84.30
12726;DHT22;6427;49.754;6.106;2023-03-03T13:12:50;10.40;83.60
12726;DHT22;6427;49.754;6.106;2023-03-03T13:23:33;10.40;81.20
12726;DHT22;6427;49.754;6.106;2023-03-03T13:31:30;10.60;79.00
12726;DHT22;6427;49.754;6.106;2023-03-03T13:33:59;10.60;78.40
12726;DHT22;6427;49.754;6.106;2023-03-03T13:36:44;10.50;78.50
12726;DHT22;6427;49.754;6.106;2023-03-03T13:39:17;10.60;78.60
12726;DHT22;6427;49.754;6.106;2023-03-03T13:41:49;10.80;77.60
12726;DHT22;6427;49.754;6.106;2023-03-03T13:44:49;10.80;76.90
12726;DHT22;6427;49.754;6.106;2023-03-03T13:50:18;10.80;76.90
12726;DHT22;6427;49.754;6.106;2023-03-03T13:55:39;11.00;74.80
12726;DHT22;6427;49.754;6.106;2023-03-03T13:58:18;11.00;74.40
12726;DHT22;6427;49.754;6.106;2023-03-03T14:03:15;11.00;74.10
12726;DHT22;6427;49.754;6.106;2023-03-03T14:05:44;10.90;72.90
12726;DHT22;6427;49.754;6.106;2023-03-03T14:08:15;10.90;72.90
12726;DHT22;6427;49.754;6.106;2023-03-03T14:10:41;10.90;73.00
12726;DHT22;6427;49.754;6.106;2023-03-03T14:13:22;11.20;72.50
12726;DHT22;6427;49.754;6.106;2023-03-03T14:16:03;11.20;71.50
12726;DHT22;6427;49.754;6.106;2023-03-03T14:18:38;11.20;71.20
12726;DHT22;6427;49.754;6.106;2023-03-03T14:21:13;11.20;71.70
12726;DHT22;6427;49.754;6.106;2023-03-03T14:26:04;11.20;71.20
12726;DHT22;6427;49.754;6.106;2023-03-03T14:28:27;11.20;71.00
12726;DHT22;6427;49.754;6.106;2023-03-03T14:30:54;11.20;70.60
12726;DHT22;6427;49.754;6.106;2023-03-03T14:33:25;11.20;70.20
12726;DHT22;6427;49.754;6.106;2023-03-03T14:35:50;11.10;69.90
12726;DHT22;6427;49.754;6.106;2023-03-03T14:38:18;11.20;69.70
12726;DHT22;6427;49.754;6.106;2023-03-03T14:40:45;11.20;69.50
12726;DHT22;6427;49.754;6.106;2023-03-03T14:43:23;11.20;69.30
12726;DHT22;6427;49.754;6.106;2023-03-03T14:45:49;11.20;69.10
12726;DHT22;6427;49.754;6.106;2023-03-03T14:48:17;11.20;68.80
12726;DHT22;6427;49.754;6.106;2023-03-03T14:50:48;11.20;67.80
12726;DHT22;6427;49.754;6.106;2023-03-03T14:55:47;11.20;67.00
12726;DHT22;6427;49.754;6.106;2023-03-03T14:58:24;11.20;66.90
12726;DHT22;6427;49.754;6.106;2023-03-03T15:01:37;11.20;67.00
12726;DHT22;6427;49.754;6.106;2023-03-03T15:03:22;11.10;66.30
12726;DHT22;6427;49.754;6.106;2023-03-03T15:05:50;11.20;66.60
12726;DHT22;6427;49.754;6.106;2023-03-03T15:08:22;11.20;66.60
12726;DHT22;6427;49.754;6.106;2023-03-03T15:10:45;11.50;64.30
12726;DHT22;6427;49.754;6.106;2023-03-03T15:18:27;11.50;64.30
12726;DHT22;6427;49.754;6.106;2023-03-03T15:21:04;11.50;64.60
12726;DHT22;6427;49.754;6.106;2023-03-03T15:29:05;11.50;64.00
12726;DHT22;6427;49.754;6.106;2023-03-03T15:37:02;11.50;62.50
12726;DHT22;6427;49.754;6.106;2023-03-03T15:42:03;11.60;62.60
12726;DHT22;6427;49.754;6.106;2023-03-03T15:52:55;11.70;61.00
12726;DHT22;6427;49.754;6.106;2023-03-03T15:55:26;11.80;60.70
12726;DHT22;6427;49.754;6.106;2023-03-03T16:00:44;11.90;60.20
12726;DHT22;6427;49.754;6.106;2023-03-03T16:03:12;11.90;59.40
12726;DHT22;6427;49.754;6.106;2023-03-03T16:05:52;11.90;59.40
12726;DHT22;6427;49.754;6.106;2023-03-03T16:11:46;12.10;59.60
12726;DHT22;6427;49.754;6.106;2023-03-03T16:14:00;12.10;59.40
12726;DHT22;6427;49.754;6.106;2023-03-03T16:16:42;12.20;59.10
12726;DHT22;6427;49.754;6.106;2023-03-03T16:22:09;12.20;58.70
12726;DHT22;6427;49.754;6.106;2023-03-03T16:25:16;12.50;57.80
12726;DHT22;6427;49.754;6.106;2023-03-03T16:29:45;12.70;57.30
12726;DHT22;6427;49.754;6.106;2023-03-03T16:32:14;12.70;56.90
12726;DHT22;6427;49.754;6.106;2023-03-03T16:34:45;12.60;56.80
12726;DHT22;6427;49.754;6.106;2023-03-03T16:37:24;12.50;56.70
12726;DHT22;6427;49.754;6.106;2023-03-03T16:40:08;12.30;56.80
12726;DHT22;6427;49.754;6.106;2023-03-03T16:42:34;12.10;57.00
12726;DHT22;6427;49.754;6.106;2023-03-03T16:56:27;11.70;58.80
12726;DHT22;6427;49.754;6.106;2023-03-03T17:01:24;11.20;59.20
12726;DHT22;6427;49.754;6.106;2023-03-03T17:06:29;11.00;59.70
12726;DHT22;6427;49.754;6.106;2023-03-03T17:15:06;10.40;60.90
12726;DHT22;6427;49.754;6.106;2023-03-03T17:17:43;10.20;61.70
12726;DHT22;6427;49.754;6.106;2023-03-03T17:25:21;10.10;62.80
12726;DHT22;6427;49.754;6.106;2023-03-03T17:27:58;9.90;63.80
12726;DHT22;6427;49.754;6.106;2023-03-03T17:33:35;9.40;65.80
12726;DHT22;6427;49.754;6.106;2023-03-03T17:41:33;8.60;68.40
12726;DHT22;6427;49.754;6.106;2023-03-03T17:44:10;8.60;68.40
12726;DHT22;6427;49.754;6.106;2023-03-03T17:46:44;8.40;68.70
12726;DHT22;6427;49.754;6.106;2023-03-03T17:49:14;8.30;69.20
12726;DHT22;6427;49.754;6.106;2023-03-03T17:51:48;8.00;70.00
12726;DHT22;6427;49.754;6.106;2023-03-03T18:08:05;7.40;71.00
12726;DHT22;6427;49.754;6.106;2023-03-03T18:10:49;7.30;70.90
12726;DHT22;6427;49.754;6.106;2023-03-03T18:16:23;7.10;70.00
12726;DHT22;6427;49.754;6.106;2023-03-03T18:18:52;6.90;69.20
12726;DHT22;6427;49.754;6.106;2023-03-03T18:23:51;6.60;69.70
12726;DHT22;6427;49.754;6.106;2023-03-03T18:26:37;6.60;69.70
12726;DHT22;6427;49.754;6.106;2023-03-03T18:34:38;6.30;70.50
12726;DHT22;6427;49.754;6.106;2023-03-03T18:37:10;6.20;70.70
12726;DHT22;6427;49.754;6.106;2023-03-03T18:39:49;6.20;71.00
12726;DHT22;6427;49.754;6.106;2023-03-03T18:44:44;6.30;70.60
12726;DHT22;6427;49.754;6.106;2023-03-03T18:47:11;6.20;70.70
12726;DHT22;6427;49.754;6.106;2023-03-03T18:52:28;6.10;71.60
12726;DHT22;6427;49.754;6.106;2023-03-03T18:57:37;5.90;71.90
12726;DHT22;6427;49.754;6.106;2023-03-03T19:07:25;5.60;78.90
12726;DHT22;6427;49.754;6.106;2023-03-03T19:09:58;5.50;80.60
12726;DHT22;6427;49.754;6.106;2023-03-03T19:12:59;5.40;82.10
12726;DHT22;6427;49.754;6.106;2023-03-03T19:18:22;5.10;85.30
12726;DHT22;6427;49.754;6.106;2023-03-03T19:20:53;5.10;85.20
12726;DHT22;6427;49.754;6.106;2023-03-03T19:23:25;5.00;85.80
12726;DHT22;6427;49.754;6.106;2023-03-03T19:29:03;5.00;87.50
12726;DHT22;6427;49.754;6.106;2023-03-03T19:34:34;5.00;88.60
12726;DHT22;6427;49.754;6.106;2023-03-03T19:37:10;5.00;88.40
12726;DHT22;6427;49.754;6.106;2023-03-03T19:39:52;4.80;88.90
12726;DHT22;6427;49.754;6.106;2023-03-03T19:42:35;4.70;90.30
12726;DHT22;6427;49.754;6.106;2023-03-03T19:47:48;4.60;90.70
12726;DHT22;6427;49.754;6.106;2023-03-03T19:50:38;4.50;91.20
12726;DHT22;6427;49.754;6.106;2023-03-03T19:53:10;4.40;91.60
12726;DHT22;6427;49.754;6.106;2023-03-03T19:55:38;4.30;92.10
12726;DHT22;6427;49.754;6.106;2023-03-03T19:58:21;4.20;92.60
12726;DHT22;6427;49.754;6.106;2023-03-03T20:00:56;4.00;93.10
12726;DHT22;6427;49.754;6.106;2023-03-03T20:03:33;4.00;93.70
12726;DHT22;6427;49.754;6.106;2023-03-03T20:08:48;3.70;95.10
12726;DHT22;6427;49.754;6.106;2023-03-03T20:11:38;3.70;95.10
12726;DHT22;6427;49.754;6.106;2023-03-03T20:14:25;3.60;95.70
12726;DHT22;6427;49.754;6.106;2023-03-03T20:16:45;3.70;96.40
12726;DHT22;6427;49.754;6.106;2023-03-03T20:19:37;3.70;96.40
12726;DHT22;6427;49.754;6.106;2023-03-03T20:22:11;3.50;96.90
12726;DHT22;6427;49.754;6.106;2023-03-03T20:24:55;3.40;97.70
12726;DHT22;6427;49.754;6.106;2023-03-03T20:27:39;3.40;97.90
12726;DHT22;6427;49.754;6.106;2023-03-03T20:30:23;3.30;98.10
12726;DHT22;6427;49.754;6.106;2023-03-03T20:41:33;3.30;98.40
12726;DHT22;6427;49.754;6.106;2023-03-03T20:44:18;3.20;98.60
12726;DHT22;6427;49.754;6.106;2023-03-03T20:52:11;2.80;99.90
12726;DHT22;6427;49.754;6.106;2023-03-03T20:54:54;2.70;99.90
12726;DHT22;6427;49.754;6.106;2023-03-03T20:59:56;2.90;99.90
12726;DHT22;6427;49.754;6.106;2023-03-03T21:05:24;3.30;99.90
12726;DHT22;6427;49.754;6.106;2023-03-03T21:07:53;3.30;99.90